Time;durP1;ratioP1;P1;durP2;ratioP2;P2;SDS_P1;SDS_P2;PMS_P1;PMS_P2;Temp;Humidity;BMP_temperature;BMP_pressure;BME280_temperature;BME280_humidity;BME280_pressure;Samples;Min_cycle;Max_cycle;Signal;HPM_P1;HPM_P2
2022/03/19 00:02:24;;;;;;;13.50;4.60;;;;;;;-4.53;53.46;101824.14;25124;1314;3026553;-74
2022/03/19 00:04:58;;;;;;;10.50;5.10;;;;;;;-4.56;53.53;101814.63;25122;1314;3055945;-73
2022/03/19 00:07:27;;;;;;;7.80;4.20;;;;;;;-4.49;53.68;101813.70;25126;1315;3029242;-68
2022/03/19 00:09:56;;;;;;;9.80;5.20;;;;;;;-4.43;53.40;101816.33;25069;1318;3047756;-69
2022/03/19 00:12:25;;;;;;;8.60;4.90;;;;;;;-4.38;53.13;101817.04;25123;1320;3025969;-70
2022/03/19 00:14:56;;;;;;;10.40;5.50;;;;;;;-4.36;52.98;101812.80;25099;1315;3026741;-73
2022/03/19 00:17:25;;;;;;;10.50;4.70;;;;;;;-4.37;53.41;101811.39;25130;1314;3026434;-71
2022/03/19 00:19:54;;;;;;;12.90;5.00;;;;;;;-4.41;53.53;101812.64;25123;1314;3055466;-71
2022/03/19 00:22:24;;;;;;;13.40;5.40;;;;;;;-4.46;53.32;101810.55;25105;1314;3026547;-70
2022/03/19 00:24:53;;;;;;;12.10;5.30;;;;;;;-4.54;54.04;101807.86;25109;1315;3027414;-74
2022/03/19 00:27:22;;;;;;;10.10;5.30;;;;;;;-4.58;54.21;101805.81;25158;1314;3054770;-75
2022/03/19 00:29:51;;;;;;;14.20;6.50;;;;;;;-4.67;54.72;101804.95;25143;1315;3026358;-72
2022/03/19 00:32:21;;;;;;;15.50;6.30;;;;;;;-4.69;55.19;101802.47;25104;1315;3051420;-68
2022/03/19 00:34:50;;;;;;;10.30;6.10;;;;;;;-4.66;55.26;101803.30;25103;1315;3026625;-68
2022/03/19 00:37:19;;;;;;;16.30;6.60;;;;;;;-4.73;56.01;101803.21;25123;1315;3056104;-69
2022/03/19 00:39:49;;;;;;;13.90;7.00;;;;;;;-4.82;56.43;101803.17;25091;1314;3026708;-72
2022/03/19 00:42:19;;;;;;;11.50;7.00;;;;;;;-4.89;57.06;101804.25;25048;1315;3028275;-73
2022/03/19 00:44:48;;;;;;;15.20;7.50;;;;;;;-4.84;57.00;101802.23;25124;1314;3027854;-68
2022/03/19 00:47:18;;;;;;;13.30;6.70;;;;;;;-4.83;56.63;101800.06;25089;1314;3052227;-67
2022/03/19 00:49:47;;;;;;;13.90;6.90;;;;;;;-4.85;56.56;101804.77;25119;1314;3026867;-67
2022/03/19 00:52:17;;;;;;;15.10;6.60;;;;;;;-4.92;56.94;101800.88;25124;1315;3026209;-69
2022/03/19 00:54:47;;;;;;;12.90;6.70;;;;;;;-4.90;56.29;101798.23;25139;1315;3051935;-68
2022/03/19 00:57:16;;;;;;;13.90;6.60;;;;;;;-4.96;56.58;101792.55;25106;1314;3028467;-68
2022/03/19 00:59:46;;;;;;;13.50;6.40;;;;;;;-5.04;57.33;101796.15;25111;1315;3056248;-69
2022/03/19 01:02:15;;;;;;;13.60;6.60;;;;;;;-4.99;57.15;101794.29;25127;1315;3026855;-69
2022/03/19 01:04:45;;;;;;;13.30;6.60;;;;;;;-5.00;57.34;101794.95;25136;1314;3026638;-69
2022/03/19 01:07:27;;;;;;;11.30;6.10;;;;;;;-4.96;56.98;101792.38;25127;1315;3054613;-70
2022/03/19 01:10:10;;;;;;;9.40;5.30;;;;;;;-5.08;57.51;101786.24;25123;1314;3069228;-70
2022/03/19 01:12:59;;;;;;;13.00;5.70;;;;;;;-5.18;58.02;101783.95;25133;1315;3047645;-66
2022/03/19 01:15:48;;;;;;;11.30;6.00;;;;;;;-5.24;58.20;101782.21;25092;1315;3052254;-69
2022/03/19 01:18:35;;;;;;;10.70;5.60;;;;;;;-5.17;57.60;101781.79;25099;1314;3053694;-71
2022/03/19 01:21:05;;;;;;;12.90;5.80;;;;;;;-5.20;57.26;101777.04;25097;1315;3029695;-68
2022/03/19 01:23:36;;;;;;;13.80;5.90;;;;;;;-5.23;57.87;101779.13;25101;1314;3027499;-69
2022/03/19 01:26:06;;;;;;;12.60;6.10;;;;;;;-5.22;57.75;101782.45;25140;1318;3026681;-70
2022/03/19 01:28:35;;;;;;;15.00;6.20;;;;;;;-5.23;58.23;101786.34;25142;1315;3026884;-68
2022/03/19 01:31:04;;;;;;;13.90;6.10;;;;;;;-5.23;58.14;101785.11;25113;1315;3026636;-69
2022/03/19 01:33:34;;;;;;;13.40;6.70;;;;;;;-5.28;57.86;101785.29;25132;1314;3028593;-66
2022/03/19 01:36:04;;;;;;;14.20;6.30;;;;;;;-5.30;58.41;101791.34;25137;1314;3054358;-68
2022/03/19 01:38:33;;;;;;;13.30;7.00;;;;;;;-5.30;58.19;101788.59;25121;1315;3026371;-73
2022/03/19 01:41:02;;;;;;;12.90;6.40;;;;;;;-5.32;58.56;101790.90;25102;1315;3026776;-69
2022/03/19 01:43:32;;;;;;;16.60;7.30;;;;;;;-5.35;59.15;101789.56;25094;1317;3026631;-66
2022/03/19 01:46:01;;;;;;;14.30;7.20;;;;;;;-5.42;58.67;101787.07;25141;1314;3029012;-69
2022/03/19 01:48:30;;;;;;;18.00;8.50;;;;;;;-5.50;59.25;101789.30;25102;1315;3051056;-67
2022/03/19 01:51:00;;;;;;;14.20;7.90;;;;;;;-5.53;59.46;101789.69;25128;1314;3028481;-69
2022/03/19 01:53:30;;;;;;;15.80;7.10;;;;;;;-5.56;59.13;101792.31;25103;1315;3069134;-71
2022/03/19 01:56:00;;;;;;;14.40;7.30;;;;;;;-5.60;58.95;101793.17;25091;1315;3027733;-69
2022/03/19 01:58:32;;;;;;;14.70;6.70;;;;;;;-5.62;59.33;101794.10;25137;1318;3028824;-69
2022/03/19 02:01:01;;;;;;;12.30;6.50;;;;;;;-5.67;59.77;101793.52;25155;1314;3027539;-70
2022/03/19 02:03:31;;;;;;;11.50;6.10;;;;;;;-5.66;59.49;101794.98;25164;1315;3052009;-69
2022/03/19 02:06:01;;;;;;;14.20;7.00;;;;;;;-5.65;59.48;101797.06;25092;1314;3028883;-69
2022/03/19 02:08:32;;;;;;;15.40;7.30;;;;;;;-5.64;59.09;101795.41;25128;1318;3069984;-69
2022/03/19 02:11:21;;;;;;;15.50;6.50;;;;;;;-5.70;59.33;101795.66;25113;1317;3049267;-71
2022/03/19 02:13:51;;;;;;;14.80;6.90;;;;;;;-5.72;59.88;101796.23;25145;1315;3026411;-70
2022/03/19 02:16:22;;;;;;;11.40;6.50;;;;;;;-5.71;59.38;101796.13;25219;1315;3026782;-70
2022/03/19 02:18:52;;;;;;;15.10;6.80;;;;;;;-5.72;59.74;101794.04;25221;1315;3026718;-68
2022/03/19 02:21:21;;;;;;;14.00;6.60;;;;;;;-5.79;59.39;101798.51;25202;1315;3052206;-72
2022/03/19 02:26:46;;;;;;;11.00;6.20;;;;;;;-5.74;59.27;101794.63;25141;1315;3050426;-71
2022/03/19 02:29:16;;;;;;;13.80;6.30;;;;;;;-5.79;59.72;101797.48;25194;1314;3029771;-68
2022/03/19 02:31:48;;;;;;;11.70;6.30;;;;;;;-5.81;59.53;101798.56;25117;1315;3029154;-69
2022/03/19 02:34:19;;;;;;;16.00;6.60;;;;;;;-5.75;59.34;101800.57;25117;1314;3028362;-69
2022/03/19 02:36:48;;;;;;;11.30;6.30;;;;;;;-5.73;59.32;101801.64;25103;1315;3026357;-70
2022/03/19 02:39:24;;;;;;;15.30;6.20;;;;;;;-5.62;58.90;101801.63;25113;1314;3054709;-72
2022/03/19 02:41:55;;;;;;;13.40;6.80;;;;;;;-5.53;58.41;101799.41;25129;1314;3055136;-69
2022/03/19 02:44:24;;;;;;;12.40;6.00;;;;;;;-5.47;57.70;101797.63;25123;1314;3030395;-71
2022/03/19 02:46:59;;;;;;;17.40;6.80;;;;;;;-5.48;58.44;101799.81;25118;1315;3026720;-68
2022/03/19 02:49:28;;;;;;;14.20;6.70;;;;;;;-5.51;58.75;101797.13;25117;1315;3053521;-68
2022/03/19 02:51:57;;;;;;;14.80;6.50;;;;;;;-5.56;58.46;101792.64;25136;1314;3026779;-68
2022/03/19 02:54:28;;;;;;;9.90;6.20;;;;;;;-5.62;58.79;101791.20;25126;1314;3053870;-65
2022/03/19 02:56:59;;;;;;;15.30;6.30;;;;;;;-5.58;58.57;101789.67;25115;1315;3026785;-70
2022/03/19 02:59:29;;;;;;;15.30;6.10;;;;;;;-5.70;58.76;101792.55;25138;1314;3026378;-68
2022/03/19 03:02:01;;;;;;;9.40;5.80;;;;;;;-5.73;58.76;101797.06;25122;1317;3053312;-69
2022/03/19 03:04:30;;;;;;;10.10;5.70;;;;;;;-5.73;59.32;101796.33;25116;1314;3026474;-67
2022/03/19 03:07:03;;;;;;;11.90;5.60;;;;;;;-5.74;58.98;101800.42;25119;1314;3027796;-74
2022/03/19 03:09:32;;;;;;;13.20;6.00;;;;;;;-5.75;58.89;101796.27;25119;1315;3026642;-67
2022/03/19 03:12:22;;;;;;;11.20;5.80;;;;;;;-5.72;58.41;101799.48;25114;1316;3052123;-67
2022/03/19 03:14:53;;;;;;;15.10;6.00;;;;;;;-5.76;58.49;101801.20;25153;1314;3026540;-69
2022/03/19 03:17:23;;;;;;;11.50;5.40;;;;;;;-5.74;58.79;101798.55;25142;1314;3026728;-66
2022/03/19 03:20:14;;;;;;;15.70;6.40;;;;;;;-5.69;58.47;101805.41;25097;1317;3051632;-69
2022/03/19 03:22:44;;;;;;;13.10;5.60;;;;;;;-5.66;58.39;101804.33;25126;1314;3026675;-70
2022/03/19 03:25:13;;;;;;;10.80;5.70;;;;;;;-5.63;57.63;101803.95;25115;1315;3028675;-70
2022/03/19 03:27:42;;;;;;;12.50;5.80;;;;;;;-5.68;58.29;101804.77;25068;1314;3026545;-71
2022/03/19 03:30:12;;;;;;;12.20;6.60;;;;;;;-5.77;58.23;101807.13;25170;1314;3026125;-70
2022/03/19 03:32:43;;;;;;;12.50;6.90;;;;;;;-5.77;58.14;101807.96;25099;1314;3053076;-66
2022/03/19 03:35:12;;;;;;;11.40;6.20;;;;;;;-5.75;57.93;101813.00;25093;1314;3026717;-71
2022/03/19 03:37:45;;;;;;;10.60;6.20;;;;;;;-5.70;57.83;101816.98;25147;1314;3026269;-67
2022/03/19 03:40:14;;;;;;;13.30;6.10;;;;;;;-5.73;57.64;101817.70;25140;1315;3026347;-70
2022/03/19 03:42:47;;;;;;;14.00;6.70;;;;;;;-5.83;57.79;101819.86;25108;1315;3069575;-67
2022/03/19 03:45:18;;;;;;;13.10;6.40;;;;;;;-5.91;58.04;101821.19;25079;1315;3026745;-67
2022/03/19 03:47:49;;;;;;;13.70;6.10;;;;;;;-5.89;58.04;101821.13;25030;1314;3028262;-70
2022/03/19 03:50:32;;;;;;;12.20;5.80;;;;;;;-5.92;58.07;101819.61;25072;1315;3053883;-71
2022/03/19 03:53:04;;;;;;;12.80;6.30;;;;;;;-5.88;58.30;101827.64;25149;1314;3027832;-66
2022/03/19 03:55:34;;;;;;;15.10;6.50;;;;;;;-5.85;58.20;101826.91;25187;1315;3052071;-69
2022/03/19 03:58:04;;;;;;;13.10;6.20;;;;;;;-5.84;58.14;101827.30;25122;1314;3026925;-70
2022/03/19 04:00:34;;;;;;;11.80;5.90;;;;;;;-5.85;58.15;101824.70;25105;1314;3026623;-71
2022/03/19 04:03:04;;;;;;;11.50;6.00;;;;;;;-5.79;58.00;101824.60;25097;1314;3026752;-67
2022/03/19 04:05:40;;;;;;;10.10;6.40;;;;;;;-5.71;57.93;101821.55;25139;1314;3053127;-70
2022/03/19 04:08:10;;;;;;;11.90;6.30;;;;;;;-5.69;57.51;101820.09;25135;1314;3026411;-66
2022/03/19 04:10:39;;;;;;;12.70;6.60;;;;;;;-5.65;57.88;101827.29;25119;1314;3026410;-68
2022/03/19 04:13:14;;;;;;;7.80;4.80;;;;;;;-5.62;57.36;101823.48;25154;1314;3051851;-72
2022/03/19 04:15:44;;;;;;;11.30;5.70;;;;;;;-5.62;57.40;101823.98;25147;1314;3027134;-72
2022/03/19 04:18:13;;;;;;;9.30;5.80;;;;;;;-5.58;57.60;101826.56;25141;1314;3027420;-69
2022/03/19 04:20:45;;;;;;;12.10;6.70;;;;;;;-5.49;57.31;101826.59;25132;1314;3050999;-70
2022/03/19 04:23:14;;;;;;;16.40;7.00;;;;;;;-5.48;57.26;101826.45;25107;1315;3026772;-71
2022/03/19 04:25:44;;;;;;;14.20;6.60;;;;;;;-5.48;56.85;101826.97;25145;1314;3026106;-66
2022/03/19 04:28:13;;;;;;;15.30;6.40;;;;;;;-5.42;57.04;101831.83;25154;1315;3026400;-69
2022/03/19 04:30:44;;;;;;;12.20;6.40;;;;;;;-5.36;56.56;101835.48;25118;1314;3027464;-67
2022/03/19 04:33:19;;;;;;;13.20;6.20;;;;;;;-5.30;56.87;101839.88;25159;1314;3026672;-68
2022/03/19 04:38:39;;;;;;;11.20;6.10;;;;;;;-5.29;56.86;101850.85;25106;1314;3071509;-71
2022/03/19 04:41:09;;;;;;;13.10;7.10;;;;;;;-5.24;56.59;101851.55;25115;1314;3026653;-67
2022/03/19 04:43:39;;;;;;;20.50;8.10;;;;;;;-5.19;56.49;101856.02;25128;1314;3026433;-70
2022/03/19 04:46:08;;;;;;;13.30;7.10;;;;;;;-5.08;56.21;101860.77;25109;1314;3027388;-69
2022/03/19 04:48:38;;;;;;;11.50;6.80;;;;;;;-5.06;56.11;101869.73;25119;1314;3026267;-66
2022/03/19 04:51:07;;;;;;;15.80;7.20;;;;;;;-5.07;56.42;101871.75;25147;1314;3026724;-66
2022/03/19 04:53:38;;;;;;;11.00;6.90;;;;;;;-5.04;56.21;101871.84;25178;1315;3027746;-68
2022/03/19 04:56:07;;;;;;;14.50;6.60;;;;;;;-4.99;56.14;101869.69;25118;1315;3026741;-70
2022/03/19 04:58:43;;;;;;;14.20;7.00;;;;;;;-4.91;55.70;101871.40;25115;1314;3071050;-69
2022/03/19 05:01:13;;;;;;;14.80;7.10;;;;;;;-4.85;55.75;101872.98;25138;1315;3026860;-69
2022/03/19 05:03:52;;;;;;;11.50;6.50;;;;;;;-4.80;55.33;101870.46;25106;1314;3052887;-71
2022/03/19 05:06:21;;;;;;;15.00;7.00;;;;;;;-4.85;55.51;101872.45;25156;1314;3026903;-67
2022/03/19 05:11:12;;;;;;;11.60;7.30;;;;;;;-4.81;55.36;101877.92;25112;1315;3049205;-72
2022/03/19 05:11:42;;;;;;;10.60;6.50;;;;;;;-4.71;54.84;101884.51;25104;1315;3054851;-72
2022/03/19 05:14:11;;;;;;;12.20;6.80;;;;;;;-4.67;54.96;101887.74;25151;1314;3026309;-67
2022/03/19 05:16:45;;;;;;;16.90;7.50;;;;;;;-4.76;55.69;101888.07;25155;1314;3049845;-70
2022/03/19 05:19:15;;;;;;;18.60;7.60;;;;;;;-4.64;55.16;101890.92;25085;1315;3026651;-69
2022/03/19 05:21:50;;;;;;;14.20;7.20;;;;;;;-4.52;54.78;101891.60;25168;1314;3053273;-72
2022/03/19 05:24:20;;;;;;;13.60;7.20;;;;;;;-4.47;54.77;101895.89;25124;1314;3026413;-70
2022/03/19 05:26:58;;;;;;;15.70;7.50;;;;;;;-4.41;54.57;101893.23;25114;1315;3051269;-73
2022/03/19 05:29:31;;;;;;;13.00;7.20;;;;;;;-4.31;54.34;101897.70;25144;1314;3026654;-70
2022/03/19 05:32:00;;;;;;;19.90;8.20;;;;;;;-4.28;54.33;101899.39;25130;1314;3026998;-71
2022/03/19 05:34:47;;;;;;;20.70;7.80;;;;;;;-4.17;53.99;101898.92;25111;1314;3052407;-68
2022/03/19 05:37:22;;;;;;;14.40;8.00;;;;;;;-4.09;53.64;101902.67;25146;1315;3053118;-69
2022/03/19 05:39:57;;;;;;;16.00;6.80;;;;;;;-4.02;53.77;101901.89;25150;1314;3051605;-72
2022/03/19 05:42:28;;;;;;;15.50;7.30;;;;;;;-3.93;53.36;101896.77;25096;1315;3027226;-73
2022/03/19 05:44:57;;;;;;;16.60;7.20;;;;;;;-3.91;52.94;101899.25;25173;1314;3053404;-71
2022/03/19 05:47:26;;;;;;;16.50;7.70;;;;;;;-3.82;52.93;101901.79;25120;1314;3027032;-69
2022/03/19 05:50:00;;;;;;;12.10;6.90;;;;;;;-3.86;52.46;101910.02;25118;1314;3070678;-67
2022/03/19 05:52:32;;;;;;;16.30;7.30;;;;;;;-3.75;52.66;101903.45;25100;1314;3026442;-71
2022/03/19 05:55:01;;;;;;;15.10;6.70;;;;;;;-3.66;51.81;101909.06;25167;1314;3028102;-70
2022/03/19 05:57:30;;;;;;;11.30;6.40;;;;;;;-3.60;51.70;101908.77;25103;1314;3070500;-69
2022/03/19 05:59:59;;;;;;;18.60;6.50;;;;;;;-3.52;51.33;101905.47;25156;1314;3026529;-71
2022/03/19 06:02:29;;;;;;;12.60;6.10;;;;;;;-3.47;51.23;101908.90;25149;1314;3053808;-69
2022/03/19 06:04:58;;;;;;;15.30;7.30;;;;;;;-3.38;50.97;101907.66;25075;1314;3026400;-69
2022/03/19 06:07:28;;;;;;;13.00;7.40;;;;;;;-3.37;50.89;101906.00;25129;1315;3054904;-72
2022/03/19 06:10:05;;;;;;;12.70;6.60;;;;;;;-3.24;51.33;101909.88;25124;1314;3050214;-73
2022/03/19 06:12:40;;;;;;;13.20;6.90;;;;;;;-3.23;51.10;101912.68;25083;1315;3071851;-68
2022/03/19 06:15:15;;;;;;;15.50;6.90;;;;;;;-3.16;50.97;101908.97;25136;1314;3051418;-70
2022/03/19 06:17:59;;;;;;;14.20;6.80;;;;;;;-3.16;50.42;101906.75;25132;1314;3054871;-71
2022/03/19 06:20:28;;;;;;;15.60;7.40;;;;;;;-3.14;50.79;101910.40;25141;1315;3026400;-72
2022/03/19 06:23:00;;;;;;;20.00;8.20;;;;;;;-3.04;50.48;101912.10;25110;1314;3027465;-71
2022/03/19 06:25:29;;;;;;;17.50;7.40;;;;;;;-2.93;50.34;101912.48;25177;1314;3027556;-72
2022/03/19 06:27:59;;;;;;;15.90;6.50;;;;;;;-2.80;49.90;101909.84;25166;1314;3026918;-73
2022/03/19 06:30:29;;;;;;;16.70;5.80;;;;;;;-2.84;49.21;101915.00;25142;1314;3029466;-68
2022/03/19 06:33:00;;;;;;;15.80;7.60;;;;;;;-2.70;49.24;101916.86;25146;1314;3050221;-72
2022/03/19 06:38:16;;;;;;;16.30;7.40;;;;;;;-2.47;49.44;101917.06;25138;1315;3054949;-69
2022/03/19 06:40:45;;;;;;;14.80;6.90;;;;;;;-2.42;48.42;101914.14;25196;1315;3026505;-68
2022/03/19 06:43:14;;;;;;;19.70;6.20;;;;;;;-2.33;47.68;101912.35;25159;1314;3055395;-72
2022/03/19 06:45:43;;;;;;;14.80;7.00;;;;;;;-2.27;47.29;101913.59;25196;1314;3026585;-67
2022/03/19 06:48:13;;;;;;;14.60;6.50;;;;;;;-2.15;47.59;101913.24;25096;1314;3048911;-71
2022/03/19 06:50:43;;;;;;;17.00;7.40;;;;;;;-2.13;48.09;101915.73;25043;1314;3028454;-71
2022/03/19 06:53:12;;;;;;;18.00;6.90;;;;;;;-2.23;48.05;101909.58;25127;1315;3026411;-71
2022/03/19 06:55:42;;;;;;;15.60;7.20;;;;;;;-2.05;48.03;101906.67;25148;1314;3052068;-74
2022/03/19 06:58:11;;;;;;;15.20;7.30;;;;;;;-1.97;47.73;101906.40;25105;1314;3027255;-67
2022/03/19 07:00:41;;;;;;;20.30;6.10;;;;;;;-1.98;47.30;101905.02;25107;1315;3058217;-71
2022/03/19 07:03:10;;;;;;;10.50;5.80;;;;;;;-1.82;46.97;101902.90;25105;1314;3026658;-70
2022/03/19 07:05:39;;;;;;;13.70;5.70;;;;;;;-1.66;46.96;101900.94;25166;1314;3026676;-70
2022/03/19 07:08:09;;;;;;;16.20;6.10;;;;;;;-1.56;45.98;101894.38;25134;1314;3058523;-70
2022/03/19 07:10:39;;;;;;;12.30;6.10;;;;;;;-1.54;46.14;101898.36;25175;1314;3027462;-68
2022/03/19 07:13:08;;;;;;;13.50;5.80;;;;;;;-1.39;46.16;101895.00;25131;1314;3026887;-72
2022/03/19 07:15:54;;;;;;;11.70;5.20;;;;;;;-1.37;45.24;101893.49;25120;1314;3058795;-71
2022/03/19 07:18:24;;;;;;;10.60;5.50;;;;;;;-1.25;45.48;101892.81;25092;1314;3026606;-69
2022/03/19 07:20:54;;;;;;;14.60;6.30;;;;;;;-1.29;44.94;101888.05;25138;1314;3028547;-72
2022/03/19 07:23:24;;;;;;;9.40;5.70;;;;;;;-1.16;45.03;101885.82;25153;1314;3027650;-71
2022/03/19 07:25:54;;;;;;;11.40;6.30;;;;;;;-1.07;44.40;101881.41;25147;1314;3026524;-68
2022/03/19 07:28:23;;;;;;;10.10;5.00;;;;;;;-0.94;44.66;101880.70;25167;1314;3026689;-72
2022/03/19 07:30:52;;;;;;;13.30;5.70;;;;;;;-0.82;44.40;101879.27;25118;1314;3026389;-72
2022/03/19 07:33:22;;;;;;;13.60;5.80;;;;;;;-0.83;43.80;101878.73;25195;1314;3026310;-72
2022/03/19 07:35:52;;;;;;;10.00;4.70;;;;;;;-0.72;43.69;101878.48;25135;1315;3051394;-69
2022/03/19 07:38:21;;;;;;;8.20;4.50;;;;;;;-0.55;43.49;101881.83;25140;1314;3026505;-69
2022/03/19 07:43:39;;;;;;;11.80;5.10;;;;;;;-0.64;42.32;101881.59;25157;1315;3052338;-71
2022/03/19 07:46:09;;;;;;;12.60;6.00;;;;;;;-0.55;42.12;101877.00;25099;1315;3026533;-67
2022/03/19 07:48:38;;;;;;;11.20;4.60;;;;;;;-0.54;42.06;101876.84;25129;1314;3068627;-75
2022/03/19 07:51:09;;;;;;;13.30;5.40;;;;;;;-0.53;41.86;101877.70;25140;1314;3027316;-70
2022/03/19 07:53:40;;;;;;;11.90;5.40;;;;;;;-0.47;42.21;101878.38;25155;1314;3026489;-68
2022/03/19 07:56:09;;;;;;;11.20;5.20;;;;;;;-0.37;42.60;101877.94;25145;1315;3026238;-71
2022/03/19 07:58:40;;;;;;;12.50;6.10;;;;;;;-0.24;42.11;101879.60;25105;1314;3047520;-69
2022/03/19 08:01:10;;;;;;;8.80;5.00;;;;;;;-0.13;42.29;101881.91;25139;1315;3026569;-72
2022/03/19 08:03:39;;;;;;;11.40;5.30;;;;;;;0.04;42.39;101881.77;25087;1314;3038055;-72
2022/03/19 08:06:08;;;;;;;9.60;5.30;;;;;;;0.05;41.38;101880.94;25092;1314;3051573;-71
2022/03/19 08:08:38;;;;;;;12.50;5.00;;;;;;;0.06;41.60;101881.27;25102;1314;3026286;-69
2022/03/19 08:11:07;;;;;;;16.90;5.80;;;;;;;0.18;41.76;101881.70;25092;1314;3026625;-72
2022/03/19 08:13:38;;;;;;;14.00;6.00;;;;;;;0.10;41.18;101874.47;25108;1314;3048288;-67
2022/03/19 08:16:09;;;;;;;12.00;5.20;;;;;;;0.24;41.19;101872.36;25138;1314;3027249;-68
2022/03/19 08:18:39;;;;;;;9.60;5.40;;;;;;;0.46;40.90;101872.95;25112;1315;3028466;-71
2022/03/19 08:21:28;;;;;;;15.40;5.10;;;;;;;0.43;39.86;101873.25;25083;1314;3056428;-72
2022/03/19 08:23:58;;;;;;;11.80;4.80;;;;;;;0.41;39.93;101866.31;25175;1314;3027440;-71
2022/03/19 08:26:27;;;;;;;10.50;4.60;;;;;;;0.53;39.64;101863.95;25137;1314;3028441;-72
2022/03/19 08:28:56;;;;;;;7.00;4.20;;;;;;;0.61;39.74;101863.59;25113;1314;3026709;-68
2022/03/19 08:31:25;;;;;;;7.70;4.10;;;;;;;0.69;39.14;101867.35;25148;1314;3049184;-71
2022/03/19 08:33:56;;;;;;;10.30;4.00;;;;;;;0.74;38.75;101862.27;25173;1314;3026460;-69
2022/03/19 08:36:25;;;;;;;8.70;4.00;;;;;;;0.81;37.87;101859.29;25121;1314;3026640;-67
2022/03/19 08:41:43;;;;;;;7.10;3.90;;;;;;;0.95;36.88;101858.66;25132;1315;3051960;-69
2022/03/19 08:44:12;;;;;;;10.30;4.50;;;;;;;1.04;37.50;101859.34;25128;1314;3028431;-67
2022/03/19 08:46:41;;;;;;;6.60;3.80;;;;;;;1.24;37.71;101861.55;24817;1314;3028617;-70
2022/03/19 08:49:11;;;;;;;9.80;4.50;;;;;;;1.34;36.99;101860.16;25141;1314;3026721;-71
2022/03/19 08:51:40;;;;;;;7.10;4.30;;;;;;;1.40;36.59;101859.75;25123;1314;3026744;-68
2022/03/19 08:54:19;;;;;;;8.40;4.60;;;;;;;1.42;35.90;101857.35;25199;1314;3026043;-74
2022/03/19 08:56:50;;;;;;;8.90;4.30;;;;;;;1.37;35.89;101853.81;25203;1314;3051823;-73
2022/03/19 08:59:22;;;;;;;7.80;4.00;;;;;;;1.61;36.16;101853.50;25182;1315;3029465;-71
2022/03/19 09:01:52;;;;;;;7.70;3.90;;;;;;;1.68;34.62;101851.86;25224;1314;3026452;-69
2022/03/19 09:04:22;;;;;;;14.30;4.80;;;;;;;1.78;34.86;101846.30;25223;1314;3028120;-68
2022/03/19 09:06:51;;;;;;;9.20;4.50;;;;;;;1.69;34.34;101847.03;25180;1314;3026893;-72
2022/03/19 09:09:20;;;;;;;14.70;4.90;;;;;;;1.79;34.64;101851.49;25159;1314;3027076;-71
2022/03/19 09:11:50;;;;;;;10.10;4.20;;;;;;;1.89;34.43;101849.90;25193;1314;3026519;-72
2022/03/19 09:14:20;;;;;;;12.50;4.30;;;;;;;1.96;34.17;101850.52;25205;1314;3026813;-74
2022/03/19 09:16:49;;;;;;;6.60;4.20;;;;;;;2.16;33.47;101845.58;25157;1314;3026571;-72
2022/03/19 09:19:18;;;;;;;15.40;4.60;;;;;;;2.21;32.88;101844.41;25137;1314;3028362;-73
2022/03/19 09:21:48;;;;;;;7.90;3.90;;;;;;;2.16;32.18;101835.90;25162;1314;3026538;-69
2022/03/19 09:24:17;;;;;;;7.10;3.80;;;;;;;2.21;31.70;101835.77;25140;1313;3029305;-70
2022/03/19 09:26:46;;;;;;;12.20;5.10;;;;;;;2.38;31.79;101835.45;25077;1315;3068097;-70
2022/03/19 09:29:16;;;;;;;15.90;3.90;;;;;;;2.39;31.32;101834.60;25118;1314;3026577;-69
2022/03/19 09:31:45;;;;;;;7.40;4.10;;;;;;;2.56;31.77;101837.54;25098;1315;3028788;-70
2022/03/19 09:34:15;;;;;;;10.50;4.80;;;;;;;2.27;30.77;101836.70;25117;1314;3068589;-71
2022/03/19 09:36:46;;;;;;;12.20;4.60;;;;;;;2.37;31.48;101831.29;25064;1315;3027439;-68
2022/03/19 09:39:16;;;;;;;9.40;4.40;;;;;;;2.58;31.36;101831.69;25166;1314;3025951;-74
2022/03/19 09:41:46;;;;;;;9.80;4.10;;;;;;;2.68;30.72;101832.47;25145;1314;3066735;-68
2022/03/19 09:44:17;;;;;;;7.00;4.10;;;;;;;2.82;30.49;101826.21;25122;1314;3027898;-69
2022/03/19 09:46:47;;;;;;;9.50;4.70;;;;;;;2.82;30.53;101829.31;25121;1314;3053830;-71
2022/03/19 09:49:16;;;;;;;8.00;4.20;;;;;;;2.92;30.28;101834.09;25101;1314;3027294;-71
2022/03/19 09:51:53;;;;;;;10.60;3.80;;;;;;;3.02;30.00;101832.44;25137;1315;3028134;-72
2022/03/19 09:54:22;;;;;;;12.70;4.40;;;;;;;3.07;30.44;101832.14;25138;1315;3052772;-73
2022/03/19 09:56:51;;;;;;;9.40;3.60;;;;;;;3.19;30.31;101827.72;25166;1314;3026448;-69
2022/03/19 09:59:22;;;;;;;5.20;3.40;;;;;;;3.27;30.10;101825.02;25149;1315;3055250;-73
2022/03/19 10:01:52;;;;;;;9.00;3.90;;;;;;;3.41;30.21;101826.83;25162;1315;3029890;-72
2022/03/19 10:04:21;;;;;;;7.40;4.10;;;;;;;3.49;29.69;101826.36;25142;1314;3026897;-67
2022/03/19 10:09:47;;;;;;;9.50;3.30;;;;;;;3.38;28.43;101822.83;25165;1314;3056665;-73
2022/03/19 10:12:20;;;;;;;6.10;3.70;;;;;;;3.68;29.05;101821.11;25133;1314;3051804;-70
2022/03/19 10:14:51;;;;;;;6.70;3.30;;;;;;;3.76;28.00;101819.08;25212;1314;3026622;-71
2022/03/19 10:17:40;;;;;;;12.20;3.20;;;;;;;3.55;28.37;101815.83;25110;1314;3051069;-68
2022/03/19 10:20:11;;;;;;;6.80;3.40;;;;;;;3.61;28.11;101821.77;25107;1314;3026512;-70
2022/03/19 10:22:42;;;;;;;6.90;3.50;;;;;;;3.79;27.93;101822.38;25139;1314;3026689;-68
2022/03/19 10:25:15;;;;;;;12.30;3.80;;;;;;;3.87;28.14;101812.53;25170;1314;3026086;-71
2022/03/19 10:27:46;;;;;;;11.40;3.50;;;;;;;3.60;27.55;101811.36;25119;1315;3026394;-70
2022/03/19 10:30:28;;;;;;;7.10;3.00;;;;;;;3.58;27.35;101808.39;25086;1314;3029058;-72
2022/03/19 10:32:57;;;;;;;10.30;4.00;;;;;;;3.71;27.64;101806.39;25168;1314;3054569;-70
2022/03/19 10:35:30;;;;;;;6.40;3.00;;;;;;;3.96;27.75;101800.27;25113;1313;3027364;-70
2022/03/19 10:38:16;;;;;;;8.00;3.50;;;;;;;4.16;27.77;101799.81;25143;1314;3053468;-74
2022/03/19 10:40:47;;;;;;;6.90;3.80;;;;;;;4.34;27.30;101794.66;25142;1315;3054194;-73
2022/03/19 10:43:23;;;;;;;5.70;2.80;;;;;;;4.55;26.97;101789.66;25140;1314;3026649;-71
2022/03/19 10:45:53;;;;;;;7.30;2.90;;;;;;;4.35;26.05;101789.28;25113;1314;3052061;-69
2022/03/19 10:48:22;;;;;;;7.70;3.00;;;;;;;4.53;26.26;101790.53;25148;1315;3027595;-70
2022/03/19 10:50:53;;;;;;;7.50;3.60;;;;;;;4.68;25.60;101799.73;25146;1315;3029893;-69
2022/03/19 10:53:22;;;;;;;7.70;3.10;;;;;;;4.83;25.57;101801.84;25139;1314;3026941;-71
2022/03/19 10:55:52;;;;;;;9.00;3.60;;;;;;;4.77;25.26;101802.52;25142;1314;3053810;-70
2022/03/19 10:58:22;;;;;;;6.70;3.30;;;;;;;4.69;25.63;101799.75;25186;1314;3026761;-73
2022/03/19 11:00:51;;;;;;;6.80;3.20;;;;;;;4.91;25.24;101796.80;25137;1314;3030095;-69
2022/03/19 11:03:30;;;;;;;8.20;3.40;;;;;;;5.13;25.06;101793.67;25109;1315;3027532;-68
2022/03/19 11:06:09;;;;;;;6.90;3.50;;;;;;;5.20;24.85;101792.63;25134;1314;3052644;-67
2022/03/19 11:08:43;;;;;;;12.40;3.80;;;;;;;5.07;24.75;101779.95;25129;1314;3068903;-71
2022/03/19 11:11:17;;;;;;;7.70;3.10;;;;;;;5.31;25.22;101782.01;25108;1315;3048529;-68
2022/03/19 11:13:48;;;;;;;7.40;3.40;;;;;;;5.42;25.04;101782.51;25114;1315;3051725;-66
2022/03/19 11:16:18;;;;;;;12.70;4.20;;;;;;;5.51;25.21;101774.13;25114;1314;3026705;-69
2022/03/19 11:18:49;;;;;;;10.00;3.10;;;;;;;5.32;24.87;101773.13;25124;1314;3026237;-71
2022/03/19 11:21:22;;;;;;;7.90;3.80;;;;;;;5.58;24.53;101770.30;25095;1314;3028727;-70
2022/03/19 11:24:14;;;;;;;8.80;3.60;;;;;;;5.65;24.59;101765.74;25154;1315;3055353;-67
2022/03/19 11:26:44;;;;;;;6.10;3.50;;;;;;;5.83;25.05;101759.42;25118;1314;3054556;-67
2022/03/19 11:29:13;;;;;;;6.10;2.90;;;;;;;5.68;24.34;101765.91;25115;1315;3026860;-67
2022/03/19 11:31:43;;;;;;;7.80;3.30;;;;;;;5.72;24.56;101765.55;25141;1314;3055459;-67
2022/03/19 11:34:15;;;;;;;8.60;3.60;;;;;;;5.59;24.05;101761.77;25049;1315;3026587;-70
2022/03/19 11:37:02;;;;;;;6.30;3.10;;;;;;;5.36;24.50;101756.28;25141;1314;3028324;-71
2022/03/19 11:39:31;;;;;;;7.60;3.20;;;;;;;5.38;24.54;101751.06;25163;1314;3050955;-68
2022/03/19 11:42:00;;;;;;;8.00;2.90;;;;;;;5.54;24.40;101746.31;25096;1315;3026521;-68
2022/03/19 11:44:29;;;;;;;6.00;3.10;;;;;;;5.77;24.10;101739.45;25145;1314;3070135;-65